West Lafayette, IN

10:00 PM EST on December 27, 2014 (GMT -0500)
Purdue Univ | Change Station
CLOSE
Current Station
Airport
Location: Lafayette,
Elevation: 604 ft
Nearby Weather Stations

Elev 604 ft 40.41 °N, 86.93 °W | Updated 6 minutes ago

Overcast
Overcast
32 °F
Feels Like 26 °F
N
6
Wind Variable Wind from West

Today
High -- | Low -- °F
--% Chance of Precip.
Yesterday
High -- | Low -- °F
Precip. -- in
8:10 AM 5:27 PM
Waxing Crescent, 43% visible
Pressure 30.13 in
Visibility 10.0 miles
Clouds Mostly Cloudy 1700 ft
Overcast 4100 ft
Windchill 26 °F
Dew Point 31 °F
Humidity 96%
Rainfall 0.12 in
Snow Depth Not available.
UV 0 out of 12
Pollen .10 out of 12
Air Quality Not available.
Flu Activity Not available.
METAR KLAF 280254Z AUTO 27005KT 10SM BKN017 OVC041 00/M01 A3012 RMK AO2 UPE08RAB08E10SNB10E32 SLP203 P0002 60007 T00001006 50008 TSNO

More Conditions Fewer Conditions

Pressure 30.13 in
Visibility 10.0 miles
Clouds Mostly Cloudy 1700 ft
Overcast 4100 ft
Windchill 26 °F
Dew Point 31 °F
Humidity 96%
Rainfall 0.12 in
Snow Depth Not available.
UV 0 out of 12
Pollen .10 out of 12
Air Quality Not available.
Flu Activity Not available.
METAR KLAF 280254Z AUTO 27005KT 10SM BKN017 OVC041 00/M01 A3012 RMK AO2 UPE08RAB08E10SNB10E32 SLP203 P0002 60007 T00001006 50008 TSNO

More Conditions Fewer Conditions

10-Day Weather Forecast

Almanac

Astronomy

Dec. 27, 2014 Rise Set
Actual Time
Civil Twilight
Nautical Twilight
Astronomical Twilight
Moon
Length of Visible Light
Length of Day
Tomorrow will be .
, % of the Moon is Illuminated

Today's Extremes

State Highs State Lows

Community

WunderPhotos

Upload Photos

1,781,151 photos uploaded!

WunderBlogs® & News

Nearby

Air Quality

  Air Quality AQ Index Pollutant
Not available.

Snow Depth

Station Depth Elevation

Earthquake Activity

City Distance Mag. Time & Date
Minimum magnitude displayed is 2.5.

Coastal Water Temperatures

Place Temperature

Nearby Weather Stations